sensor_id;sensor_type;location;lat;lon;timestamp;temperature;humidity
65078;DHT22;51672;51.230;-2.322;2022-08-19T00:00:20;19.70;99.90
65078;DHT22;51672;51.230;-2.322;2022-08-19T00:04:05;19.60;99.90
65078;DHT22;51672;51.230;-2.322;2022-08-19T00:07:48;19.60;99.90
65078;DHT22;51672;51.230;-2.322;2022-08-19T00:11:31;19.60;99.90
65078;DHT22;51672;51.230;-2.322;2022-08-19T00:15:16;19.60;99.90
65078;DHT22;51672;51.230;-2.322;2022-08-19T00:18:59;19.60;99.90
65078;DHT22;51672;51.230;-2.322;2022-08-19T00:22:41;19.60;99.90
65078;DHT22;51672;51.230;-2.322;2022-08-19T00:26:25;19.60;99.90
65078;DHT22;51672;51.230;-2.322;2022-08-19T00:30:08;19.60;99.90
65078;DHT22;51672;51.230;-2.322;2022-08-19T00:33:51;19.60;99.90
65078;DHT22;51672;51.230;-2.322;2022-08-19T00:37:34;19.60;99.90
65078;DHT22;51672;51.230;-2.322;2022-08-19T00:41:18;19.60;99.90
65078;DHT22;51672;51.230;-2.322;2022-08-19T00:45:11;19.70;99.90
65078;DHT22;51672;51.230;-2.322;2022-08-19T00:48:54;19.70;99.90
65078;DHT22;51672;51.230;-2.322;2022-08-19T00:52:39;19.70;99.90
65078;DHT22;51672;51.230;-2.322;2022-08-19T00:56:26;19.80;99.90
65078;DHT22;51672;51.230;-2.322;2022-08-19T01:00:13;19.80;99.90
65078;DHT22;51672;51.230;-2.322;2022-08-19T01:03:55;19.80;99.90
65078;DHT22;51672;51.230;-2.322;2022-08-19T01:07:40;19.80;99.90
65078;DHT22;51672;51.230;-2.322;2022-08-19T01:11:22;19.90;99.90
65078;DHT22;51672;51.230;-2.322;2022-08-19T01:15:07;19.90;99.90
65078;DHT22;51672;51.230;-2.322;2022-08-19T01:18:50;19.90;99.90
65078;DHT22;51672;51.230;-2.322;2022-08-19T01:22:36;19.90;99.90
65078;DHT22;51672;51.230;-2.322;2022-08-19T01:26:22;19.80;99.90
65078;DHT22;51672;51.230;-2.322;2022-08-19T01:30:07;19.80;99.90
65078;DHT22;51672;51.230;-2.322;2022-08-19T01:33:51;19.60;99.90
65078;DHT22;51672;51.230;-2.322;2022-08-19T01:37:46;19.50;99.90
65078;DHT22;51672;51.230;-2.322;2022-08-19T01:41:29;19.50;99.90
65078;DHT22;51672;51.230;-2.322;2022-08-19T01:45:11;19.50;99.90
65078;DHT22;51672;51.230;-2.322;2022-08-19T01:48:53;19.50;99.90
65078;DHT22;51672;51.230;-2.322;2022-08-19T01:52:36;19.50;99.90
65078;DHT22;51672;51.230;-2.322;2022-08-19T01:56:20;19.50;99.90
65078;DHT22;51672;51.230;-2.322;2022-08-19T02:00:06;19.40;99.90
65078;DHT22;51672;51.230;-2.322;2022-08-19T02:03:49;19.30;99.90
65078;DHT22;51672;51.230;-2.322;2022-08-19T02:07:31;19.20;99.90
65078;DHT22;51672;51.230;-2.322;2022-08-19T02:11:23;19.00;99.90
65078;DHT22;51672;51.230;-2.322;2022-08-19T02:15:08;18.90;99.90
65078;DHT22;51672;51.230;-2.322;2022-08-19T02:18:51;18.80;99.90
65078;DHT22;51672;51.230;-2.322;2022-08-19T02:22:33;18.70;99.90
65078;DHT22;51672;51.230;-2.322;2022-08-19T02:26:15;18.70;99.90
65078;DHT22;51672;51.230;-2.322;2022-08-19T02:29:58;18.50;99.90
65078;DHT22;51672;51.230;-2.322;2022-08-19T02:33:40;18.40;99.90
65078;DHT22;51672;51.230;-2.322;2022-08-19T02:37:22;18.30;99.90
65078;DHT22;51672;51.230;-2.322;2022-08-19T02:41:25;18.30;99.90
65078;DHT22;51672;51.230;-2.322;2022-08-19T02:45:12;18.20;99.90
65078;DHT22;51672;51.230;-2.322;2022-08-19T02:53:18;18.20;99.90
65078;DHT22;51672;51.230;-2.322;2022-08-19T02:57:00;18.20;99.90
65078;DHT22;51672;51.230;-2.322;2022-08-19T03:00:44;18.20;99.90
65078;DHT22;51672;51.230;-2.322;2022-08-19T03:04:27;18.30;99.90
65078;DHT22;51672;51.230;-2.322;2022-08-19T03:08:09;18.30;99.90
65078;DHT22;51672;51.230;-2.322;2022-08-19T03:11:53;18.30;99.90
65078;DHT22;51672;51.230;-2.322;2022-08-19T03:15:39;18.30;99.90
65078;DHT22;51672;51.230;-2.322;2022-08-19T03:19:21;18.30;99.90
65078;DHT22;51672;51.230;-2.322;2022-08-19T03:23:03;18.40;99.90
65078;DHT22;51672;51.230;-2.322;2022-08-19T03:26:48;18.40;99.90
65078;DHT22;51672;51.230;-2.322;2022-08-19T03:30:30;18.40;99.90
65078;DHT22;51672;51.230;-2.322;2022-08-19T03:34:20;18.30;99.90
65078;DHT22;51672;51.230;-2.322;2022-08-19T03:38:04;18.20;99.90
65078;DHT22;51672;51.230;-2.322;2022-08-19T03:41:47;18.30;99.90
65078;DHT22;51672;51.230;-2.322;2022-08-19T03:46:07;18.30;99.90
65078;DHT22;51672;51.230;-2.322;2022-08-19T03:49:49;18.30;99.90
65078;DHT22;51672;51.230;-2.322;2022-08-19T03:53:32;18.30;99.90
65078;DHT22;51672;51.230;-2.322;2022-08-19T03:57:14;18.30;99.90
65078;DHT22;51672;51.230;-2.322;2022-08-19T04:00:57;18.30;99.90
65078;DHT22;51672;51.230;-2.322;2022-08-19T04:04:42;18.30;99.90
65078;DHT22;51672;51.230;-2.322;2022-08-19T04:08:25;18.30;99.90
65078;DHT22;51672;51.230;-2.322;2022-08-19T04:12:07;18.30;99.90
65078;DHT22;51672;51.230;-2.322;2022-08-19T04:15:49;18.30;99.90
65078;DHT22;51672;51.230;-2.322;2022-08-19T04:19:33;18.30;99.90
65078;DHT22;51672;51.230;-2.322;2022-08-19T04:23:15;18.30;99.90
65078;DHT22;51672;51.230;-2.322;2022-08-19T04:27:02;18.40;99.90
65078;DHT22;51672;51.230;-2.322;2022-08-19T04:30:49;18.40;99.90
65078;DHT22;51672;51.230;-2.322;2022-08-19T04:34:31;18.40;99.90
65078;DHT22;51672;51.230;-2.322;2022-08-19T04:38:14;18.40;99.90
65078;DHT22;51672;51.230;-2.322;2022-08-19T04:41:56;18.40;99.90
65078;DHT22;51672;51.230;-2.322;2022-08-19T04:45:57;18.40;99.90
65078;DHT22;51672;51.230;-2.322;2022-08-19T04:49:41;18.40;99.90
65078;DHT22;51672;51.230;-2.322;2022-08-19T04:53:28;18.40;99.90
65078;DHT22;51672;51.230;-2.322;2022-08-19T04:57:18;18.40;99.90
65078;DHT22;51672;51.230;-2.322;2022-08-19T05:01:00;18.40;99.90
65078;DHT22;51672;51.230;-2.322;2022-08-19T05:04:42;18.40;99.90
65078;DHT22;51672;51.230;-2.322;2022-08-19T05:08:24;18.40;99.90
65078;DHT22;51672;51.230;-2.322;2022-08-19T05:12:12;18.30;99.90
65078;DHT22;51672;51.230;-2.322;2022-08-19T05:15:56;18.30;99.90
65078;DHT22;51672;51.230;-2.322;2022-08-19T05:19:39;18.30;99.90
65078;DHT22;51672;51.230;-2.322;2022-08-19T05:23:40;18.20;99.90
65078;DHT22;51672;51.230;-2.322;2022-08-19T05:27:22;18.20;99.90
65078;DHT22;51672;51.230;-2.322;2022-08-19T05:31:04;18.20;99.90
65078;DHT22;51672;51.230;-2.322;2022-08-19T05:34:46;18.20;99.90
65078;DHT22;51672;51.230;-2.322;2022-08-19T05:38:28;18.20;99.90
65078;DHT22;51672;51.230;-2.322;2022-08-19T05:42:12;18.20;99.90
65078;DHT22;51672;51.230;-2.322;2022-08-19T05:45:54;18.20;99.90
65078;DHT22;51672;51.230;-2.322;2022-08-19T05:49:37;18.20;99.90
65078;DHT22;51672;51.230;-2.322;2022-08-19T05:53:19;18.10;99.90
65078;DHT22;51672;51.230;-2.322;2022-08-19T05:57:02;18.10;99.90
65078;DHT22;51672;51.230;-2.322;2022-08-19T06:00:44;18.10;99.90
65078;DHT22;51672;51.230;-2.322;2022-08-19T06:04:26;18.10;99.90
65078;DHT22;51672;51.230;-2.322;2022-08-19T06:08:08;18.10;99.90
65078;DHT22;51672;51.230;-2.322;2022-08-19T06:11:53;18.20;99.90
65078;DHT22;51672;51.230;-2.322;2022-08-19T06:15:36;18.30;99.90
65078;DHT22;51672;51.230;-2.322;2022-08-19T06:19:21;18.30;99.90
65078;DHT22;51672;51.230;-2.322;2022-08-19T06:27:51;18.70;99.90
65078;DHT22;51672;51.230;-2.322;2022-08-19T06:32:20;19.00;99.90
65078;DHT22;51672;51.230;-2.322;2022-08-19T06:36:04;19.30;99.90
65078;DHT22;51672;51.230;-2.322;2022-08-19T06:44:41;20.30;98.10
65078;DHT22;51672;51.230;-2.322;2022-08-19T06:52:20;21.30;94.60
65078;DHT22;51672;51.230;-2.322;2022-08-19T07:05:03;22.40;94.00
65078;DHT22;51672;51.230;-2.322;2022-08-19T07:08:47;23.00;90.90
65078;DHT22;51672;51.230;-2.322;2022-08-19T07:12:36;23.60;88.40
65078;DHT22;51672;51.230;-2.322;2022-08-19T07:16:20;23.90;87.80
65078;DHT22;51672;51.230;-2.322;2022-08-19T07:28:47;23.70;85.20
65078;DHT22;51672;51.230;-2.322;2022-08-19T07:32:33;24.30;76.40
65078;DHT22;51672;51.230;-2.322;2022-08-19T07:36:35;24.60;74.60
65078;DHT22;51672;51.230;-2.322;2022-08-19T07:40:20;25.00;72.40
65078;DHT22;51672;51.230;-2.322;2022-08-19T07:44:08;25.60;64.50
65078;DHT22;51672;51.230;-2.322;2022-08-19T07:48:11;26.10;64.40
65078;DHT22;51672;51.230;-2.322;2022-08-19T07:52:34;26.70;64.00
65078;DHT22;51672;51.230;-2.322;2022-08-19T07:56:42;27.40;62.70
65078;DHT22;51672;51.230;-2.322;2022-08-19T08:00:25;28.10;56.90
65078;DHT22;51672;51.230;-2.322;2022-08-19T08:04:31;28.60;51.20
65078;DHT22;51672;51.230;-2.322;2022-08-19T08:09:04;29.30;52.10
65078;DHT22;51672;51.230;-2.322;2022-08-19T08:16:58;30.70;48.00
65078;DHT22;51672;51.230;-2.322;2022-08-19T08:20:41;31.60;44.70
65078;DHT22;51672;51.230;-2.322;2022-08-19T08:24:54;32.40;43.20
65078;DHT22;51672;51.230;-2.322;2022-08-19T08:32:58;33.90;41.40
65078;DHT22;51672;51.230;-2.322;2022-08-19T08:45:17;35.10;39.40
65078;DHT22;51672;51.230;-2.322;2022-08-19T08:53:14;36.50;40.40
65078;DHT22;51672;51.230;-2.322;2022-08-19T09:18:02;37.60;35.70
65078;DHT22;51672;51.230;-2.322;2022-08-19T09:22:11;37.60;34.50
65078;DHT22;51672;51.230;-2.322;2022-08-19T09:34:54;37.40;32.90
65078;DHT22;51672;51.230;-2.322;2022-08-19T09:43:35;36.90;33.90
65078;DHT22;51672;51.230;-2.322;2022-08-19T09:51:38;36.90;33.10
65078;DHT22;51672;51.230;-2.322;2022-08-19T09:59:45;37.30;33.90
65078;DHT22;51672;51.230;-2.322;2022-08-19T10:03:53;37.10;31.80
65078;DHT22;51672;51.230;-2.322;2022-08-19T10:07:37;36.20;33.70
65078;DHT22;51672;51.230;-2.322;2022-08-19T10:16:17;33.80;35.20
65078;DHT22;51672;51.230;-2.322;2022-08-19T10:20:02;33.20;36.70
65078;DHT22;51672;51.230;-2.322;2022-08-19T10:27:49;34.10;35.20
65078;DHT22;51672;51.230;-2.322;2022-08-19T10:40:01;37.30;34.00
65078;DHT22;51672;51.230;-2.322;2022-08-19T10:43:44;37.70;31.60
65078;DHT22;51672;51.230;-2.322;2022-08-19T10:51:33;36.90;32.30
65078;DHT22;51672;51.230;-2.322;2022-08-19T11:00:14;35.10;35.10
65078;DHT22;51672;51.230;-2.322;2022-08-19T11:03:57;34.40;35.00
65078;DHT22;51672;51.230;-2.322;2022-08-19T11:20:52;30.60;40.10
65078;DHT22;51672;51.230;-2.322;2022-08-19T11:24:56;30.00;41.10
65078;DHT22;51672;51.230;-2.322;2022-08-19T11:28:39;29.90;42.10
65078;DHT22;51672;51.230;-2.322;2022-08-19T11:36:41;29.90;41.90
65078;DHT22;51672;51.230;-2.322;2022-08-19T11:40:58;29.40;42.00
65078;DHT22;51672;51.230;-2.322;2022-08-19T11:48:59;28.60;43.70
65078;DHT22;51672;51.230;-2.322;2022-08-19T12:01:20;27.40;46.50
65078;DHT22;51672;51.230;-2.322;2022-08-19T12:09:10;27.10;46.20
65078;DHT22;51672;51.230;-2.322;2022-08-19T12:17:10;27.50;45.50
65078;DHT22;51672;51.230;-2.322;2022-08-19T12:21:21;27.70;44.80
65078;DHT22;51672;51.230;-2.322;2022-08-19T12:25:05;27.80;45.00
65078;DHT22;51672;51.230;-2.322;2022-08-19T12:32:52;27.70;44.40
65078;DHT22;51672;51.230;-2.322;2022-08-19T12:40:52;28.00;45.20
65078;DHT22;51672;51.230;-2.322;2022-08-19T12:44:57;28.00;44.00
65078;DHT22;51672;51.230;-2.322;2022-08-19T12:48:40;27.90;43.60
65078;DHT22;51672;51.230;-2.322;2022-08-19T13:10:08;26.70;46.30
65078;DHT22;51672;51.230;-2.322;2022-08-19T13:17:55;26.50;45.80
65078;DHT22;51672;51.230;-2.322;2022-08-19T13:30:19;25.90;46.50
65078;DHT22;51672;51.230;-2.322;2022-08-19T13:34:37;25.90;46.80
65078;DHT22;51672;51.230;-2.322;2022-08-19T13:42:47;26.00;46.80
65078;DHT22;51672;51.230;-2.322;2022-08-19T13:46:54;25.80;47.10
65078;DHT22;51672;51.230;-2.322;2022-08-19T13:59:37;25.70;47.60
65078;DHT22;51672;51.230;-2.322;2022-08-19T14:07:23;25.70;48.20
65078;DHT22;51672;51.230;-2.322;2022-08-19T14:15:21;25.30;49.10
65078;DHT22;51672;51.230;-2.322;2022-08-19T14:23:12;25.10;48.10
65078;DHT22;51672;51.230;-2.322;2022-08-19T14:31:14;24.60;50.40
65078;DHT22;51672;51.230;-2.322;2022-08-19T14:35:28;24.40;50.70
65078;DHT22;51672;51.230;-2.322;2022-08-19T14:46:59;23.80;51.10
65078;DHT22;51672;51.230;-2.322;2022-08-19T14:51:05;23.70;50.40
65078;DHT22;51672;51.230;-2.322;2022-08-19T14:54:48;23.50;51.10
65078;DHT22;51672;51.230;-2.322;2022-08-19T15:07:12;23.20;50.70
65078;DHT22;51672;51.230;-2.322;2022-08-19T15:15:01;22.80;51.70
65078;DHT22;51672;51.230;-2.322;2022-08-19T15:22:58;22.60;52.70
65078;DHT22;51672;51.230;-2.322;2022-08-19T15:30:52;22.60;52.50
65078;DHT22;51672;51.230;-2.322;2022-08-19T15:38:35;22.60;52.60
65078;DHT22;51672;51.230;-2.322;2022-08-19T15:46:39;22.50;51.80
65078;DHT22;51672;51.230;-2.322;2022-08-19T16:03:31;23.00;51.90
65078;DHT22;51672;51.230;-2.322;2022-08-19T16:07:48;23.00;51.30
65078;DHT22;51672;51.230;-2.322;2022-08-19T16:15:51;22.80;52.40
65078;DHT22;51672;51.230;-2.322;2022-08-19T16:32:50;22.60;53.70
65078;DHT22;51672;51.230;-2.322;2022-08-19T16:58:44;22.00;57.10
65078;DHT22;51672;51.230;-2.322;2022-08-19T17:15:36;21.70;55.00
65078;DHT22;51672;51.230;-2.322;2022-08-19T17:23:29;21.40;55.30
65078;DHT22;51672;51.230;-2.322;2022-08-19T17:27:41;21.30;55.50
65078;DHT22;51672;51.230;-2.322;2022-08-19T17:31:26;21.10;56.10
65078;DHT22;51672;51.230;-2.322;2022-08-19T17:43:37;20.80;57.00
65078;DHT22;51672;51.230;-2.322;2022-08-19T17:51:42;20.60;56.50
65078;DHT22;51672;51.230;-2.322;2022-08-19T17:59:29;20.50;57.90
65078;DHT22;51672;51.230;-2.322;2022-08-19T18:07:25;20.40;58.00
65078;DHT22;51672;51.230;-2.322;2022-08-19T18:15:11;20.20;60.40
65078;DHT22;51672;51.230;-2.322;2022-08-19T18:27:43;19.90;61.20
65078;DHT22;51672;51.230;-2.322;2022-08-19T18:53:37;19.20;63.30
65078;DHT22;51672;51.230;-2.322;2022-08-19T19:01:30;19.10;65.60
65078;DHT22;51672;51.230;-2.322;2022-08-19T19:13:52;18.70;66.50
65078;DHT22;51672;51.230;-2.322;2022-08-19T19:22:17;18.60;68.20
65078;DHT22;51672;51.230;-2.322;2022-08-19T19:25:59;18.60;69.80
65078;DHT22;51672;51.230;-2.322;2022-08-19T19:29:42;18.70;71.10
65078;DHT22;51672;51.230;-2.322;2022-08-19T19:33:28;18.80;71.20
65078;DHT22;51672;51.230;-2.322;2022-08-19T19:37:10;18.80;71.60
65078;DHT22;51672;51.230;-2.322;2022-08-19T19:40:52;18.80;71.80
65078;DHT22;51672;51.230;-2.322;2022-08-19T19:44:37;18.80;71.30
65078;DHT22;51672;51.230;-2.322;2022-08-19T19:48:20;18.80;71.10
65078;DHT22;51672;51.230;-2.322;2022-08-19T19:52:02;18.80;70.60
65078;DHT22;51672;51.230;-2.322;2022-08-19T19:55:44;18.80;70.30
65078;DHT22;51672;51.230;-2.322;2022-08-19T19:59:26;18.80;70.20
65078;DHT22;51672;51.230;-2.322;2022-08-19T20:03:08;18.80;70.30
65078;DHT22;51672;51.230;-2.322;2022-08-19T20:06:51;18.80;69.70
65078;DHT22;51672;51.230;-2.322;2022-08-19T20:10:33;18.80;70.00
65078;DHT22;51672;51.230;-2.322;2022-08-19T20:14:24;18.80;70.00
65078;DHT22;51672;51.230;-2.322;2022-08-19T20:18:06;18.80;69.80
65078;DHT22;51672;51.230;-2.322;2022-08-19T20:21:48;18.80;70.60
65078;DHT22;51672;51.230;-2.322;2022-08-19T20:25:32;18.70;70.80
65078;DHT22;51672;51.230;-2.322;2022-08-19T20:29:16;18.70;71.30
65078;DHT22;51672;51.230;-2.322;2022-08-19T20:33:19;18.60;71.50
65078;DHT22;51672;51.230;-2.322;2022-08-19T20:37:01;18.50;72.00
65078;DHT22;51672;51.230;-2.322;2022-08-19T20:40:43;18.30;72.80
65078;DHT22;51672;51.230;-2.322;2022-08-19T20:44:25;18.20;73.70
65078;DHT22;51672;51.230;-2.322;2022-08-19T20:48:08;18.00;74.70
65078;DHT22;51672;51.230;-2.322;2022-08-19T20:51:51;17.80;75.60
65078;DHT22;51672;51.230;-2.322;2022-08-19T20:55:33;17.70;76.50
65078;DHT22;51672;51.230;-2.322;2022-08-19T20:59:15;17.50;77.20
65078;DHT22;51672;51.230;-2.322;2022-08-19T21:02:57;17.40;78.10
65078;DHT22;51672;51.230;-2.322;2022-08-19T21:06:39;17.30;79.10
65078;DHT22;51672;51.230;-2.322;2022-08-19T21:10:25;17.20;79.70
65078;DHT22;51672;51.230;-2.322;2022-08-19T21:14:08;17.10;80.40
65078;DHT22;51672;51.230;-2.322;2022-08-19T21:17:50;17.00;81.70
65078;DHT22;51672;51.230;-2.322;2022-08-19T21:21:32;17.00;82.50
65078;DHT22;51672;51.230;-2.322;2022-08-19T21:25:16;17.00;83.40
65078;DHT22;51672;51.230;-2.322;2022-08-19T21:28:58;17.10;83.50
65078;DHT22;51672;51.230;-2.322;2022-08-19T21:32:40;17.00;84.00
65078;DHT22;51672;51.230;-2.322;2022-08-19T21:36:22;17.00;84.80
65078;DHT22;51672;51.230;-2.322;2022-08-19T21:40:05;16.90;85.60
65078;DHT22;51672;51.230;-2.322;2022-08-19T21:43:48;16.80;86.60
65078;DHT22;51672;51.230;-2.322;2022-08-19T21:47:30;16.70;87.20
65078;DHT22;51672;51.230;-2.322;2022-08-19T21:51:12;16.60;88.00
65078;DHT22;51672;51.230;-2.322;2022-08-19T21:54:54;16.50;88.40
65078;DHT22;51672;51.230;-2.322;2022-08-19T21:58:36;16.50;89.50
65078;DHT22;51672;51.230;-2.322;2022-08-19T22:02:19;16.40;90.00
65078;DHT22;51672;51.230;-2.322;2022-08-19T22:06:03;16.40;90.30
65078;DHT22;51672;51.230;-2.322;2022-08-19T22:09:46;16.30;90.50
65078;DHT22;51672;51.230;-2.322;2022-08-19T22:13:30;16.30;91.00
65078;DHT22;51672;51.230;-2.322;2022-08-19T22:17:20;16.20;91.10
65078;DHT22;51672;51.230;-2.322;2022-08-19T22:21:03;16.20;91.40
65078;DHT22;51672;51.230;-2.322;2022-08-19T22:24:53;16.10;91.80
65078;DHT22;51672;51.230;-2.322;2022-08-19T22:28:41;16.10;92.10
65078;DHT22;51672;51.230;-2.322;2022-08-19T22:32:23;16.10;92.20
65078;DHT22;51672;51.230;-2.322;2022-08-19T22:36:09;16.10;92.30
65078;DHT22;51672;51.230;-2.322;2022-08-19T22:39:51;16.10;92.60
65078;DHT22;51672;51.230;-2.322;2022-08-19T22:43:33;16.10;92.90
65078;DHT22;51672;51.230;-2.322;2022-08-19T22:47:17;16.10;93.00
65078;DHT22;51672;51.230;-2.322;2022-08-19T22:51:00;16.00;93.10
65078;DHT22;51672;51.230;-2.322;2022-08-19T22:55:04;16.00;93.50
65078;DHT22;51672;51.230;-2.322;2022-08-19T22:58:47;16.00;93.40
65078;DHT22;51672;51.230;-2.322;2022-08-19T23:02:34;15.90;93.60
65078;DHT22;51672;51.230;-2.322;2022-08-19T23:06:32;15.80;93.70
65078;DHT22;51672;51.230;-2.322;2022-08-19T23:10:19;15.70;93.90
65078;DHT22;51672;51.230;-2.322;2022-08-19T23:14:08;15.60;94.10
65078;DHT22;51672;51.230;-2.322;2022-08-19T23:17:53;15.50;94.40
65078;DHT22;51672;51.230;-2.322;2022-08-19T23:21:37;15.40;94.70
65078;DHT22;51672;51.230;-2.322;2022-08-19T23:25:25;15.40;95.30
65078;DHT22;51672;51.230;-2.322;2022-08-19T23:29:08;15.20;95.20
65078;DHT22;51672;51.230;-2.322;2022-08-19T23:33:26;15.20;95.50
65078;DHT22;51672;51.230;-2.322;2022-08-19T23:37:29;15.10;94.90
65078;DHT22;51672;51.230;-2.322;2022-08-19T23:41:12;15.10;96.00
65078;DHT22;51672;51.230;-2.322;2022-08-19T23:45:00;15.00;96.20
65078;DHT22;51672;51.230;-2.322;2022-08-19T23:48:45;15.00;96.30
65078;DHT22;51672;51.230;-2.322;2022-08-19T23:52:27;14.90;96.50
65078;DHT22;51672;51.230;-2.322;2022-08-19T23:56:10;14.80;96.30
65078;DHT22;51672;51.230;-2.322;2022-08-19T23:59:52;14.80;96.60
